createdAt,value
2022-12-20T00:27:48.974Z,996.67
2022-12-20T00:28:48.949Z,996.68
2022-12-20T00:29:48.946Z,996.64
2022-12-20T00:30:48.923Z,996.62
2022-12-20T00:31:49.800Z,996.60
2022-12-20T00:32:48.921Z,996.56
2022-12-20T00:33:50.016Z,996.55
2022-12-20T00:34:50.003Z,996.58
2022-12-20T00:35:49.982Z,996.58
2022-12-20T00:36:49.972Z,996.57
2022-12-20T00:37:49.983Z,996.56
2022-12-20T00:38:50.970Z,996.59
2022-12-20T00:39:51.741Z,996.58
2022-12-20T00:40:50.946Z,996.56
2022-12-20T00:41:49.944Z,996.56
2022-12-20T00:42:49.943Z,996.58
2022-12-20T00:43:49.937Z,996.59
2022-12-20T00:44:49.911Z,996.62
2022-12-20T00:45:51.745Z,996.62
2022-12-20T00:46:49.936Z,996.64
2022-12-20T00:47:49.894Z,996.66
2022-12-20T00:48:49.885Z,996.59
2022-12-20T00:49:49.872Z,996.65
2022-12-20T00:50:49.867Z,996.63
2022-12-20T00:51:49.875Z,996.65
2022-12-20T00:52:49.852Z,996.63
2022-12-20T00:53:49.847Z,996.62
2022-12-20T00:54:49.833Z,996.70
2022-12-20T00:55:49.834Z,996.56
2022-12-20T00:56:49.817Z,996.62
2022-12-20T00:57:49.811Z,996.60
2022-12-20T00:58:49.826Z,996.57
2022-12-20T00:59:49.820Z,996.60
2022-12-20T01:00:55.791Z,996.61
2022-12-20T01:01:52.618Z,996.55
2022-12-20T01:02:50.702Z,996.61
2022-12-20T01:03:50.512Z,996.61
2022-12-20T01:04:49.757Z,996.58
2022-12-20T01:05:49.752Z,996.58
2022-12-20T01:06:49.739Z,996.52
2022-12-20T01:07:49.742Z,996.55
2022-12-20T01:08:49.773Z,996.51
2022-12-20T01:09:49.720Z,996.49
2022-12-20T01:10:49.712Z,996.47
2022-12-20T01:11:49.717Z,996.43
2022-12-20T01:12:49.711Z,996.46
2022-12-20T01:13:50.365Z,996.40
2022-12-20T01:14:49.674Z,996.33
2022-12-20T01:15:50.723Z,996.28
2022-12-20T01:16:49.720Z,996.29
2022-12-20T01:17:49.663Z,996.24
2022-12-20T01:18:49.651Z,996.23
2022-12-20T01:19:49.637Z,996.20
2022-12-20T01:20:49.640Z,996.21
2022-12-20T01:21:49.638Z,996.21
2022-12-20T01:22:49.635Z,996.23
2022-12-20T01:23:49.619Z,996.27
2022-12-20T01:24:49.608Z,996.30
2022-12-20T01:25:49.607Z,996.19
2022-12-20T01:26:49.625Z,996.19
2022-12-20T01:27:49.583Z,996.25
2022-12-20T01:28:49.567Z,996.15
2022-12-20T01:29:49.567Z,996.11
2022-12-20T01:30:49.584Z,996.15
2022-12-20T01:31:49.633Z,996.16
2022-12-20T01:32:49.536Z,996.02
2022-12-20T01:33:49.530Z,996.10
2022-12-20T01:34:50.250Z,996.08
2022-12-20T01:35:49.556Z,996.09
2022-12-20T01:36:49.558Z,996.11
2022-12-20T01:37:49.514Z,996.03
2022-12-20T01:38:49.495Z,996.04
2022-12-20T01:39:49.498Z,996.10
2022-12-20T01:40:49.475Z,996.03
2022-12-20T01:41:49.492Z,996.02
2022-12-20T01:42:49.459Z,996.11
2022-12-20T01:43:49.453Z,996.07
2022-12-20T01:44:49.465Z,996.06
2022-12-20T01:45:49.491Z,996.05
2022-12-20T01:46:49.429Z,996.07
2022-12-20T01:47:50.290Z,996.12
2022-12-20T01:48:49.442Z,996.10
2022-12-20T01:49:49.410Z,996.10
2022-12-20T01:50:49.412Z,996.05
2022-12-20T01:51:49.404Z,996.13
2022-12-20T01:52:49.397Z,996.12
2022-12-20T01:53:49.376Z,996.09
2022-12-20T01:54:49.390Z,996.15
2022-12-20T01:55:53.340Z,996.16
2022-12-20T01:56:49.367Z,996.12
2022-12-20T01:57:49.345Z,996.17
2022-12-20T01:58:49.353Z,996.05
2022-12-20T01:59:50.335Z,995.96
2022-12-20T02:00:49.381Z,995.98
2022-12-20T02:01:49.953Z,995.91
2022-12-20T02:02:49.516Z,996.00
2022-12-20T02:03:49.310Z,995.99
2022-12-20T02:04:49.306Z,995.98
2022-12-20T02:05:49.285Z,995.97
2022-12-20T02:06:49.306Z,996.00
2022-12-20T02:07:49.277Z,996.08
2022-12-20T02:08:49.253Z,996.05
2022-12-20T02:09:49.258Z,996.04
2022-12-20T02:10:49.252Z,996.10
2022-12-20T02:11:49.242Z,995.99
2022-12-20T02:12:49.233Z,996.00
2022-12-20T02:13:49.765Z,995.92
2022-12-20T02:14:49.267Z,995.89
2022-12-20T02:15:49.210Z,995.89
2022-12-20T02:16:49.271Z,995.84
2022-12-20T02:17:50.840Z,995.86
2022-12-20T02:18:49.203Z,995.86
2022-12-20T02:19:50.179Z,995.88
2022-12-20T02:20:49.182Z,995.83
2022-12-20T02:21:49.166Z,995.76
2022-12-20T02:22:49.155Z,995.76
2022-12-20T02:23:49.846Z,995.81
2022-12-20T02:24:49.769Z,995.81
2022-12-20T02:25:50.759Z,995.75
2022-12-20T02:26:49.147Z,995.71
2022-12-20T02:27:49.863Z,995.78
2022-12-20T02:28:49.119Z,995.73
2022-12-20T02:29:49.099Z,995.70
2022-12-20T02:30:49.094Z,995.68
2022-12-20T02:31:49.141Z,995.69
2022-12-20T02:32:49.078Z,995.66
2022-12-20T02:33:50.874Z,995.68
2022-12-20T02:34:49.062Z,995.74
2022-12-20T02:35:49.057Z,995.62
2022-12-20T02:36:49.763Z,995.62
2022-12-20T02:37:49.847Z,995.62
2022-12-20T02:38:49.038Z,995.56
2022-12-20T02:39:49.026Z,995.55
2022-12-20T02:40:49.764Z,995.56
2022-12-20T02:41:49.842Z,995.56
2022-12-20T02:42:49.004Z,995.65
2022-12-20T02:43:50.836Z,995.75
2022-12-20T02:44:49.005Z,995.75
2022-12-20T02:45:48.995Z,995.74
2022-12-20T02:46:49.846Z,995.71
2022-12-20T02:47:48.964Z,995.65
2022-12-20T02:48:48.944Z,995.69
2022-12-20T02:49:48.941Z,995.65
2022-12-20T02:50:48.933Z,995.58
2022-12-20T02:51:48.962Z,995.58
2022-12-20T02:52:48.913Z,995.54
2022-12-20T02:53:48.905Z,995.54
2022-12-20T02:54:48.908Z,995.59
2022-12-20T02:55:48.901Z,995.59
2022-12-20T02:56:48.912Z,995.63
2022-12-20T02:57:50.358Z,995.72
2022-12-20T02:58:48.875Z,995.79
2022-12-20T02:59:48.869Z,995.72
2022-12-20T03:00:48.855Z,995.64
2022-12-20T03:01:49.896Z,995.62
2022-12-20T03:02:50.950Z,995.61
2022-12-20T03:03:50.488Z,995.58
2022-12-20T03:04:48.826Z,995.52
2022-12-20T03:05:48.815Z,995.48
2022-12-20T03:06:48.873Z,995.54
2022-12-20T03:07:49.336Z,995.52
2022-12-20T03:08:50.339Z,995.59
2022-12-20T03:09:48.789Z,995.55
2022-12-20T03:10:48.761Z,995.56
2022-12-20T03:11:50.283Z,995.66
2022-12-20T03:12:48.777Z,995.70
2022-12-20T03:13:49.869Z,995.73
2022-12-20T03:14:48.736Z,995.65
2022-12-20T03:15:50.362Z,995.66
2022-12-20T03:16:48.772Z,995.63
2022-12-20T03:17:48.717Z,995.63
2022-12-20T03:18:49.351Z,995.60
2022-12-20T03:19:49.725Z,995.60
2022-12-20T03:20:48.702Z,995.51
2022-12-20T03:21:48.667Z,995.49
2022-12-20T03:22:48.788Z,995.51
2022-12-20T03:23:48.707Z,995.51
2022-12-20T03:24:48.658Z,995.51
2022-12-20T03:25:49.283Z,995.51
2022-12-20T03:26:49.664Z,995.55
2022-12-20T03:27:48.654Z,995.50
2022-12-20T03:28:49.386Z,995.50
2022-12-20T03:29:48.616Z,995.49
2022-12-20T03:30:48.719Z,995.45
2022-12-20T03:31:48.614Z,995.46
2022-12-20T03:32:49.826Z,995.39
2022-12-20T03:33:48.585Z,995.38
2022-12-20T03:34:48.578Z,995.33
2022-12-20T03:35:48.584Z,995.34
2022-12-20T03:36:48.571Z,995.36
2022-12-20T03:37:49.361Z,995.37
2022-12-20T03:38:48.875Z,995.37
2022-12-20T03:39:49.557Z,995.46
2022-12-20T03:40:48.547Z,995.41
2022-12-20T03:41:48.564Z,995.42
2022-12-20T03:42:49.368Z,995.41
2022-12-20T03:43:49.370Z,995.39
2022-12-20T03:44:48.568Z,995.41
2022-12-20T03:45:49.628Z,995.48
2022-12-20T03:46:49.344Z,995.38
2022-12-20T03:47:49.280Z,995.40
2022-12-20T03:48:48.500Z,995.45
2022-12-20T03:49:48.476Z,995.38
2022-12-20T03:50:48.452Z,995.46
2022-12-20T03:51:48.447Z,995.44
2022-12-20T03:52:48.462Z,995.47
2022-12-20T03:53:52.275Z,995.48
2022-12-20T03:54:49.369Z,995.50
2022-12-20T03:55:50.295Z,995.56
2022-12-20T03:56:48.409Z,995.53
2022-12-20T03:57:48.402Z,995.46
2022-12-20T03:58:48.406Z,995.52
2022-12-20T03:59:48.403Z,995.43
2022-12-20T04:00:48.378Z,995.51
2022-12-20T04:01:48.516Z,995.48
2022-12-20T04:02:48.522Z,995.46
2022-12-20T04:03:49.496Z,995.44
2022-12-20T04:04:48.357Z,995.46
2022-12-20T04:05:48.333Z,995.42
2022-12-20T04:06:48.383Z,995.40
2022-12-20T04:07:48.321Z,995.39
2022-12-20T04:08:48.310Z,995.43
2022-12-20T04:09:48.306Z,995.42
2022-12-20T04:10:49.302Z,995.41
2022-12-20T04:11:48.290Z,995.37
2022-12-20T04:12:48.286Z,995.36
2022-12-20T04:13:48.272Z,995.45
2022-12-20T04:14:48.270Z,995.39
2022-12-20T04:15:48.815Z,995.39
2022-12-20T04:16:48.264Z,995.44
2022-12-20T04:17:48.251Z,995.45
2022-12-20T04:18:48.239Z,995.45
2022-12-20T04:19:48.259Z,995.42
2022-12-20T04:20:48.217Z,995.45
2022-12-20T04:21:48.219Z,995.42
2022-12-20T04:22:48.211Z,995.40
2022-12-20T04:23:48.311Z,995.38
2022-12-20T04:24:48.201Z,995.34
2022-12-20T04:25:48.204Z,995.18
2022-12-20T04:26:48.186Z,995.25
2022-12-20T04:27:48.202Z,995.20
2022-12-20T04:28:48.164Z,995.20
2022-12-20T04:29:49.860Z,995.18
2022-12-20T04:30:48.185Z,995.18
2022-12-20T04:31:49.218Z,995.11
2022-12-20T04:32:48.125Z,995.13
2022-12-20T04:33:48.139Z,995.12
2022-12-20T04:34:48.111Z,995.16
2022-12-20T04:35:48.105Z,995.21
2022-12-20T04:36:48.103Z,995.09
2022-12-20T04:37:48.102Z,995.07
2022-12-20T04:38:48.096Z,995.03
2022-12-20T04:39:48.077Z,995.05
2022-12-20T04:40:48.073Z,995.06
2022-12-20T04:41:48.089Z,995.06
2022-12-20T04:42:48.052Z,995.05
2022-12-20T04:43:48.082Z,995.04
2022-12-20T04:44:48.042Z,995.06
2022-12-20T04:45:48.032Z,995.02
2022-12-20T04:46:48.872Z,995.07
2022-12-20T04:47:48.008Z,995.12
2022-12-20T04:48:57.988Z,995.16
2022-12-20T04:49:52.783Z,995.17
2022-12-20T04:50:47.993Z,995.14
2022-12-20T04:51:47.991Z,995.06
2022-12-20T04:52:48.502Z,995.09
2022-12-20T04:53:48.073Z,995.06
2022-12-20T04:54:47.959Z,994.97
2022-12-20T04:55:47.960Z,994.96
2022-12-20T04:56:47.935Z,994.94
2022-12-20T04:57:47.926Z,994.90
2022-12-20T04:58:47.926Z,994.79
2022-12-20T04:59:47.919Z,994.82
2022-12-20T05:00:47.926Z,994.81
2022-12-20T05:01:48.110Z,994.86
2022-12-20T05:02:48.096Z,994.95
2022-12-20T05:03:47.956Z,994.93
2022-12-20T05:04:47.877Z,994.93
2022-12-20T05:05:47.861Z,994.97
2022-12-20T05:06:47.856Z,994.90
2022-12-20T05:07:47.864Z,994.98
2022-12-20T05:08:47.842Z,994.96
2022-12-20T05:09:47.851Z,994.88
2022-12-20T05:10:47.829Z,994.86
2022-12-20T05:11:47.815Z,994.86
2022-12-20T05:12:47.819Z,994.81
2022-12-20T05:13:48.360Z,994.92
2022-12-20T05:14:47.793Z,994.91
2022-12-20T05:15:47.851Z,994.95
2022-12-20T05:16:47.782Z,994.98
2022-12-20T05:17:50.805Z,994.96
2022-12-20T05:18:49.527Z,994.93
2022-12-20T05:19:50.367Z,994.88
2022-12-20T05:20:48.888Z,994.85
2022-12-20T05:21:47.742Z,994.82
2022-12-20T05:22:47.729Z,994.86
2022-12-20T05:23:53.295Z,994.91
2022-12-20T05:24:48.710Z,994.95
2022-12-20T05:25:47.701Z,994.83
2022-12-20T05:26:47.699Z,994.81
2022-12-20T05:27:47.695Z,994.79
2022-12-20T05:28:47.699Z,994.81
2022-12-20T05:29:47.682Z,994.87
2022-12-20T05:30:47.666Z,994.79
2022-12-20T05:31:47.907Z,994.85
2022-12-20T05:32:47.650Z,994.88
2022-12-20T05:33:47.643Z,994.86
2022-12-20T05:34:47.641Z,994.81
2022-12-20T05:36:53.913Z,994.80
2022-12-20T05:37:54.776Z,994.81
2022-12-20T05:39:01.922Z,994.73
2022-12-20T05:39:55.284Z,994.71
2022-12-20T05:40:53.882Z,994.64
2022-12-20T05:41:53.875Z,994.62
2022-12-20T05:42:53.877Z,994.57
2022-12-20T05:43:53.861Z,994.58
2022-12-20T05:44:53.844Z,994.56
2022-12-20T05:45:54.755Z,994.54
2022-12-20T05:46:53.972Z,994.61
2022-12-20T05:47:54.921Z,994.55
2022-12-20T05:48:54.903Z,994.53
2022-12-20T05:49:54.965Z,994.54
2022-12-20T05:50:54.977Z,994.46
2022-12-20T05:51:55.772Z,994.47
2022-12-20T05:52:54.880Z,994.47
2022-12-20T05:53:55.773Z,994.56
2022-12-20T05:54:54.882Z,994.49
2022-12-20T05:55:54.877Z,994.52
2022-12-20T05:56:54.851Z,994.57
2022-12-20T05:57:59.266Z,994.62
2022-12-20T05:58:54.848Z,994.64
2022-12-20T05:59:55.826Z,994.67
2022-12-20T06:00:55.826Z,994.66
2022-12-20T06:01:56.008Z,994.72
2022-12-20T06:02:55.551Z,994.78
2022-12-20T06:03:54.877Z,994.71
2022-12-20T06:04:54.785Z,994.70
2022-12-20T06:05:55.364Z,994.75
2022-12-20T06:06:56.358Z,994.76
2022-12-20T06:07:54.762Z,994.76
2022-12-20T06:08:54.750Z,994.76
2022-12-20T06:09:54.755Z,994.77
2022-12-20T21:26:46.402Z,990.07
2022-12-20T21:27:46.360Z,990.06
2022-12-20T21:28:46.358Z,990.09
2022-12-20T21:29:46.348Z,990.06
2022-12-20T21:30:46.339Z,989.94
2022-12-20T21:31:46.432Z,989.98
2022-12-20T21:32:46.328Z,990.04
2022-12-20T21:33:46.312Z,990.03
2022-12-20T21:34:46.307Z,990.06
2022-12-20T21:35:53.586Z,990.04
2022-12-20T21:36:47.293Z,990.06
2022-12-20T21:37:46.280Z,990.03
2022-12-20T21:38:46.286Z,990.05
2022-12-20T21:39:46.269Z,990.04
2022-12-20T21:40:47.361Z,990.03
2022-12-20T21:41:47.359Z,990.06
2022-12-20T21:42:47.367Z,990.10
2022-12-20T21:43:47.337Z,990.07
2022-12-20T21:44:47.322Z,990.00
2022-12-20T21:45:47.383Z,989.94
2022-12-20T21:46:47.415Z,990.01
2022-12-20T21:47:47.305Z,989.95
2022-12-20T21:48:47.304Z,989.97
2022-12-20T21:49:47.311Z,990.00
2022-12-20T21:50:47.271Z,989.99
2022-12-20T21:51:47.279Z,989.98
2022-12-20T21:52:47.261Z,989.98
2022-12-20T21:53:47.272Z,990.00
2022-12-20T21:54:47.253Z,990.00
2022-12-20T21:55:47.235Z,989.95
2022-12-20T21:56:47.253Z,989.93
2022-12-20T21:57:47.211Z,989.95
2022-12-20T21:58:47.217Z,989.97
2022-12-20T21:59:47.209Z,989.94
2022-12-20T22:00:52.606Z,990.01
2022-12-20T22:01:49.315Z,990.00
2022-12-20T22:02:48.263Z,989.99
2022-12-20T22:03:47.203Z,989.97
2022-12-20T22:04:47.172Z,990.00
2022-12-20T22:05:47.195Z,989.93
2022-12-20T22:06:51.044Z,989.95
2022-12-20T22:07:47.141Z,989.97
2022-12-20T22:08:47.134Z,989.91
2022-12-20T22:09:47.978Z,989.91
2022-12-20T22:10:47.124Z,989.95
2022-12-20T22:11:47.124Z,989.95
2022-12-20T22:12:47.092Z,989.93
2022-12-20T22:13:47.114Z,989.95
2022-12-20T22:14:47.094Z,989.93
2022-12-20T22:15:47.090Z,989.92
2022-12-20T22:16:47.120Z,989.88
2022-12-20T22:17:47.065Z,989.83
2022-12-20T22:18:47.056Z,989.86
2022-12-20T22:19:47.057Z,989.82
2022-12-20T22:20:47.042Z,989.83
2022-12-20T22:21:49.777Z,989.85
2022-12-20T22:22:48.019Z,989.81
2022-12-20T22:23:47.030Z,989.85
2022-12-20T22:24:47.028Z,989.83
2022-12-20T22:25:46.993Z,989.83
2022-12-20T22:26:47.004Z,989.78
2022-12-20T22:27:46.976Z,989.80
2022-12-20T22:28:47.069Z,989.75
2022-12-20T22:29:46.963Z,989.79
2022-12-20T22:30:46.951Z,989.86
2022-12-20T22:31:47.044Z,989.80
2022-12-20T22:32:46.951Z,989.81
2022-12-20T22:33:46.945Z,989.80
2022-12-20T22:34:46.914Z,989.83
2022-12-20T22:35:46.918Z,989.81
2022-12-20T22:36:46.904Z,989.81
2022-12-20T22:37:46.886Z,989.82
2022-12-20T22:38:46.945Z,989.76
2022-12-20T22:39:46.885Z,989.77
2022-12-20T22:40:46.881Z,989.72
2022-12-20T22:41:46.869Z,989.72
2022-12-20T22:42:46.854Z,989.68
2022-12-20T22:43:46.840Z,989.75
2022-12-20T22:44:46.842Z,989.73
2022-12-20T22:45:46.890Z,989.69
2022-12-20T22:46:46.847Z,989.61
2022-12-20T22:47:46.817Z,989.67
2022-12-20T22:48:46.803Z,989.64
2022-12-20T22:49:46.817Z,989.66
2022-12-20T22:50:46.792Z,989.72
2022-12-20T22:51:55.163Z,989.65
2022-12-20T22:52:48.800Z,989.67
2022-12-20T22:53:46.763Z,989.64
2022-12-20T22:54:46.771Z,989.58
2022-12-20T22:55:46.739Z,989.56
2022-12-20T22:56:46.745Z,989.54
2022-12-20T22:57:48.559Z,989.55
2022-12-20T22:58:48.606Z,989.55
2022-12-20T22:59:46.736Z,989.49
2022-12-20T23:00:46.696Z,989.46
2022-12-20T23:01:47.249Z,989.43
2022-12-20T23:02:46.959Z,989.47
2022-12-20T23:03:46.706Z,989.46
2022-12-20T23:04:46.669Z,989.44
2022-12-20T23:05:46.654Z,989.43
2022-12-20T23:06:46.658Z,989.41
2022-12-20T23:07:46.736Z,989.46
2022-12-20T23:08:47.624Z,989.45
2022-12-20T23:09:46.648Z,989.47
2022-12-20T23:10:46.626Z,989.52
2022-12-20T23:11:46.623Z,989.54
2022-12-20T23:12:46.630Z,989.48
2022-12-20T23:13:46.600Z,989.48
2022-12-20T23:14:46.599Z,989.52
2022-12-20T23:15:46.579Z,989.46
2022-12-20T23:16:46.643Z,989.40
2022-12-20T23:17:46.581Z,989.37
2022-12-20T23:18:46.591Z,989.36
2022-12-20T23:19:46.549Z,989.32
2022-12-20T23:20:46.536Z,989.31
2022-12-20T23:21:46.528Z,989.25
2022-12-20T23:22:46.515Z,989.29
2022-12-20T23:23:50.939Z,989.26
2022-12-20T23:24:48.509Z,989.24
2022-12-20T23:25:46.546Z,989.26
2022-12-20T23:26:46.500Z,989.25
2022-12-20T23:27:47.041Z,989.12
2022-12-20T23:28:46.474Z,989.19
2022-12-20T23:29:46.485Z,989.12
2022-12-20T23:30:46.493Z,989.16
2022-12-20T23:31:48.607Z,989.17
2022-12-20T23:32:46.518Z,989.16
2022-12-20T23:33:48.052Z,989.22
2022-12-20T23:34:46.444Z,989.16
2022-12-20T23:35:46.421Z,989.20
2022-12-20T23:36:48.523Z,989.18
2022-12-20T23:37:46.400Z,989.20
2022-12-20T23:38:47.041Z,989.18
2022-12-20T23:39:46.383Z,989.19
2022-12-20T23:40:46.395Z,989.13
2022-12-20T23:41:46.398Z,989.19
2022-12-20T23:42:46.380Z,989.12
2022-12-20T23:43:46.360Z,989.14
2022-12-20T23:44:46.362Z,989.08
2022-12-20T23:45:46.423Z,989.15
2022-12-20T23:46:46.336Z,989.08
2022-12-20T23:47:46.331Z,989.06
2022-12-20T23:48:47.040Z,989.16
2022-12-20T23:49:46.305Z,989.15
2022-12-20T23:50:46.300Z,989.11
2022-12-20T23:51:46.284Z,989.08
2022-12-20T23:52:46.291Z,989.14
2022-12-20T23:53:46.277Z,989.11
2022-12-20T23:54:47.189Z,989.10
2022-12-20T23:55:46.255Z,989.15
2022-12-20T23:56:46.262Z,989.07
2022-12-20T23:57:46.256Z,989.05
2022-12-20T23:58:46.259Z,989.08
2022-12-20T23:59:46.229Z,989.05
